Michigan City Muni-Phillips Field Information

FAA: MGC - ICAO: KMGC

Michigan City Muni-Phillips Field (Airport) Location

State Indiana
County La Porte
City Michigan City
Michigan City Muni-Phillips Field (Airport) is 3 miles east of Michigan City, IN.
Latitude 41-42-11.9350N
Longitude 086-49-16.4640W
Elevation 654ft

Michigan City Muni-Phillips Field METARs

METAR KMGC 262335Z AUTO 17004KT 10SM CLR M15/M22 A3038 RMK AO2
Altimeter 30.38"
Temperature -15.0°C (5.0°F)
Wind 170° at 4KT
Clouds Skies are clear.
Visibility 10.0mi
Time observed: 2022-01-26T23:35:00Z

Michigan City Muni-Phillips Field (Airport) Details

Status Operational
Activation April 1940
Ownership Public
Usage Public
Chart CHICAGO
ATC on-site No
Beacon schedule sunset-sunrise
Beacon color clear green

Michigan City Muni-Phillips Field (Airport) Contacts

Owner MICHIGAN CITY BOAC
Owner address 1300 N HWY 212, MICHIGAN CITY, IN 46360
Owner phone 219-872-0121
Manager MICHAEL J. CAPOUCH
Manager address 16747 W 200 N, MEDARYVILLE, IN 47957
Manager phone 219-843-4491

Michigan City Muni-Phillips Field Radio Frequencies

Michigan City Muni-Phillips Field (Airport) Radio Frequencies

UNICOM 122.7
Common traffic advisory frequency (CTAF) 122.7